createdAt,value
2023-04-28T00:01:13.972Z,82.40
2023-04-28T00:03:42.066Z,82.10
2023-04-28T00:06:12.366Z,81.90
2023-04-28T00:08:40.287Z,82.40
2023-04-28T00:11:10.887Z,82.10
2023-04-28T00:13:38.842Z,81.80
2023-04-28T00:16:07.556Z,81.90
2023-04-28T00:18:35.897Z,81.90
2023-04-28T00:21:03.823Z,81.90
2023-04-28T00:23:33.179Z,81.70
2023-04-28T00:26:01.036Z,81.90
2023-04-28T00:30:59.705Z,81.90
2023-04-28T00:33:27.622Z,81.90
2023-04-28T00:36:00.744Z,82.60
2023-04-28T00:38:28.868Z,82.20
2023-04-28T00:40:58.235Z,82.40
2023-04-28T00:43:26.273Z,82.40
2023-04-28T00:45:54.420Z,82.10
2023-04-28T00:48:23.722Z,82.40
2023-04-28T00:50:52.460Z,81.90
2023-04-28T00:53:20.354Z,82.20
2023-04-28T00:55:48.992Z,82.40
2023-04-28T00:58:18.291Z,82.40
2023-04-28T01:00:46.306Z,81.90
2023-04-28T03:44:45.712Z,83.30
2023-04-28T04:10:06.599Z,83.70
2023-04-28T04:12:34.800Z,82.60
2023-04-28T04:15:02.561Z,83.50
2023-04-28T04:17:30.598Z,82.30
2023-04-28T04:19:58.460Z,82.50
2023-04-28T04:22:26.302Z,82.60
2023-04-28T04:24:54.123Z,82.70
2023-04-28T04:27:25.684Z,82.20
2023-04-28T04:29:53.443Z,82.70
2023-04-28T04:32:21.208Z,83.20
2023-04-28T04:34:49.349Z,82.30
2023-04-28T04:37:25.082Z,82.30
2023-04-28T04:39:52.865Z,83.20
2023-04-28T04:42:29.324Z,83.40
2023-04-28T04:45:03.819Z,83.80
2023-04-28T04:47:34.791Z,83.70
2023-04-28T04:50:08.864Z,83.00
2023-04-28T04:52:41.340Z,83.20
2023-04-28T04:55:11.353Z,83.00
2023-04-28T04:57:44.496Z,82.90
2023-04-28T05:00:19.502Z,83.50
2023-04-28T05:02:50.203Z,83.00
2023-04-28T05:05:21.682Z,84.20
2023-04-28T05:07:52.211Z,82.90
2023-04-28T05:10:24.578Z,83.20
2023-04-28T05:12:55.613Z,82.30
2023-04-28T05:15:23.650Z,82.20
2023-04-28T05:17:54.374Z,81.60
2023-04-28T05:20:26.188Z,81.60
2023-04-28T05:22:54.804Z,81.40
2023-04-28T05:25:24.922Z,81.40
2023-04-28T05:27:54.751Z,81.20
2023-04-28T05:30:26.857Z,81.30
2023-04-28T05:32:57.666Z,81.30
2023-04-28T05:35:26.085Z,81.20
2023-04-28T05:37:55.965Z,81.30
2023-04-28T05:40:27.110Z,81.30
2023-04-28T05:42:56.593Z,82.00
2023-04-28T05:45:32.496Z,81.30
2023-04-28T05:48:01.132Z,81.10
2023-04-28T05:50:29.992Z,81.00
2023-04-28T05:53:08.532Z,81.20
2023-04-28T05:55:40.671Z,81.10
2023-04-28T05:58:10.221Z,81.30
2023-04-28T06:00:43.139Z,81.40
2023-04-28T06:03:13.336Z,81.30
2023-04-28T06:05:47.665Z,81.10
2023-04-28T06:08:15.900Z,81.10
2023-04-28T06:10:43.849Z,81.10
2023-04-28T06:13:14.623Z,81.30
2023-04-28T06:15:47.180Z,81.20
2023-04-28T06:18:16.252Z,81.10
2023-04-28T06:20:44.520Z,81.20
2023-04-28T06:23:12.396Z,81.30
2023-04-28T06:25:44.513Z,81.30
2023-04-28T06:28:14.954Z,81.20
2023-04-28T06:30:43.253Z,81.00
2023-04-28T06:33:11.210Z,81.10
2023-04-28T06:35:40.500Z,81.10
2023-04-28T06:38:08.759Z,81.20
2023-04-28T06:40:36.712Z,81.10
2023-04-28T06:43:05.729Z,80.90
2023-04-28T06:45:35.142Z,81.10
2023-04-28T06:48:10.715Z,80.70
2023-04-28T06:50:42.400Z,81.10
2023-04-28T06:53:11.860Z,81.00
2023-04-28T06:55:41.174Z,81.10
2023-04-28T06:58:11.436Z,81.10
2023-04-28T07:00:43.622Z,80.90
2023-04-28T07:03:12.053Z,81.60
2023-04-28T07:05:40.549Z,80.90
2023-04-28T07:08:11.275Z,80.90
2023-04-28T07:10:42.546Z,80.90
2023-04-28T07:13:16.143Z,81.00
2023-04-28T07:15:59.760Z,81.00
2023-04-28T07:18:30.291Z,80.90
2023-04-28T07:21:05.380Z,81.00
2023-04-28T07:24:03.119Z,81.00
2023-04-28T07:26:53.577Z,81.00
2023-04-28T07:30:14.784Z,81.00
2023-04-28T07:32:50.267Z,81.00
2023-04-28T07:35:21.588Z,81.00
2023-04-28T07:41:44.192Z,81.00
2023-04-28T07:44:38.176Z,80.90
2023-04-28T07:47:23.658Z,80.90
2023-04-28T08:00:52.466Z,80.80
2023-04-28T08:04:01.396Z,80.90
2023-04-28T08:06:47.004Z,81.00
2023-04-28T08:09:41.816Z,81.00
2023-04-28T08:13:01.341Z,81.00
2023-04-28T08:25:36.314Z,81.30
2023-04-28T08:35:10.569Z,81.60
2023-04-28T08:44:40.807Z,81.40
2023-04-28T08:48:00.222Z,81.40
2023-04-28T08:54:28.270Z,82.40
2023-04-28T09:01:22.426Z,81.50
2023-04-28T09:23:29.627Z,82.00
2023-04-28T11:42:55.589Z,82.20
2023-04-28T12:04:14.922Z,82.40
2023-04-28T12:08:16.529Z,82.40
2023-04-28T12:12:03.385Z,82.50
2023-04-28T12:15:44.029Z,82.50
2023-04-28T12:24:17.373Z,82.40
2023-04-28T12:35:12.329Z,82.60
2023-04-28T12:42:05.391Z,82.60
2023-04-28T12:44:54.039Z,82.50
2023-04-28T12:47:43.361Z,82.50
2023-04-28T12:50:36.280Z,82.50
2023-04-28T12:53:18.582Z,82.50
2023-04-28T12:55:46.758Z,82.60
2023-04-28T12:58:25.457Z,82.70
2023-04-28T13:01:20.924Z,82.70
2023-04-28T13:04:16.197Z,82.80
2023-04-28T13:07:08.238Z,82.90
2023-04-28T13:12:22.855Z,82.90
2023-04-28T13:15:38.860Z,83.00
2023-04-28T13:19:11.837Z,83.20
2023-04-28T13:25:05.304Z,83.30
2023-04-28T13:29:04.182Z,83.40
2023-04-28T13:31:57.304Z,83.20
2023-04-28T13:34:26.686Z,83.30
2023-04-28T13:44:20.146Z,83.60
2023-04-28T13:47:55.649Z,83.70
2023-04-28T13:59:15.643Z,83.80
2023-04-28T14:01:33.054Z,83.90
2023-04-28T14:05:24.084Z,83.90
2023-04-28T14:12:24.185Z,84.00
2023-04-28T14:15:09.355Z,84.10
2023-04-28T14:18:00.440Z,84.20
2023-04-28T14:20:39.549Z,84.10
2023-04-28T14:26:06.675Z,84.20
2023-04-28T14:32:26.060Z,84.30
2023-04-28T14:35:38.867Z,84.40
2023-04-28T14:38:12.166Z,84.60
2023-04-28T14:40:56.758Z,84.50
2023-04-28T14:43:52.101Z,84.60
2023-04-28T14:46:55.454Z,84.60
2023-04-28T14:49:48.325Z,84.60
2023-04-28T14:52:39.456Z,84.60
2023-04-28T14:55:33.859Z,84.60
2023-04-28T14:58:29.889Z,84.70
2023-04-28T15:01:22.568Z,84.70
2023-04-28T15:04:27.016Z,84.80
2023-04-28T15:07:07.184Z,85.00
2023-04-28T15:20:38.349Z,85.10
2023-04-28T15:23:26.368Z,85.30
2023-04-28T15:26:15.491Z,85.30
2023-04-28T15:28:54.470Z,85.30
2023-04-28T15:31:42.969Z,86.20
2023-04-28T15:34:21.514Z,85.40
2023-04-28T15:36:53.833Z,85.50
2023-04-28T15:39:28.989Z,85.60
2023-04-28T15:42:05.621Z,85.80
2023-04-28T15:44:38.946Z,85.70
2023-04-28T15:47:36.423Z,85.90
2023-04-28T15:50:43.272Z,85.90
2023-04-28T15:53:25.309Z,85.90
2023-04-28T15:56:00.580Z,85.80
2023-04-28T15:58:28.812Z,85.90
2023-04-28T16:01:00.530Z,86.00
2023-04-28T16:03:28.995Z,86.40
2023-04-28T16:06:03.556Z,86.40
2023-04-28T16:08:33.098Z,86.50
2023-04-28T16:11:19.107Z,86.40
2023-04-28T16:14:19.452Z,86.40
2023-04-28T16:17:07.247Z,86.50
2023-04-28T16:19:39.518Z,86.50
2023-04-28T16:22:11.417Z,86.50
2023-04-28T16:24:43.923Z,86.40
2023-04-28T16:27:17.284Z,86.50
2023-04-28T16:29:50.106Z,86.60
2023-04-28T16:32:22.605Z,86.70
2023-04-28T16:35:51.439Z,86.50
2023-04-28T16:38:24.903Z,86.60
2023-04-28T16:41:15.588Z,86.80
2023-04-28T17:23:55.531Z,87.60
2023-04-28T17:26:49.759Z,87.70
2023-04-28T17:33:51.263Z,87.80
2023-04-28T17:36:20.727Z,87.90
2023-04-28T17:42:56.336Z,88.00
2023-04-28T17:45:30.558Z,88.10
2023-04-28T17:56:37.009Z,88.60
2023-04-28T17:59:23.153Z,88.70
2023-04-28T18:01:59.127Z,88.70
2023-04-28T18:04:34.245Z,88.70
2023-04-28T18:07:24.914Z,88.90
2023-04-28T18:10:24.624Z,89.10
2023-04-28T18:12:54.583Z,89.00
2023-04-28T18:15:29.342Z,89.10
2023-04-28T18:19:06.792Z,89.10
2023-04-28T18:26:07.194Z,89.10
2023-04-28T18:29:07.827Z,89.30
2023-04-28T18:31:37.317Z,89.20
2023-04-28T18:34:06.705Z,89.20
2023-04-28T18:36:39.502Z,89.20
2023-04-28T18:39:08.982Z,89.30
2023-04-28T18:41:39.395Z,89.50
2023-04-28T18:44:08.622Z,89.50
2023-04-28T18:47:00.011Z,89.50
2023-04-28T18:49:28.302Z,89.50
2023-04-28T18:55:59.244Z,89.70
2023-04-28T19:03:17.637Z,89.70
2023-04-28T19:09:16.655Z,90.00
2023-04-28T19:23:32.859Z,90.10
2023-04-28T19:33:04.392Z,90.30
2023-04-28T19:43:34.478Z,90.50
2023-04-28T19:50:07.304Z,90.60
2023-04-28T19:53:23.984Z,90.50
2023-04-28T19:55:53.078Z,90.40
2023-04-28T19:58:52.449Z,90.40
2023-04-28T20:01:48.043Z,90.60
2023-04-28T20:08:29.605Z,90.60
2023-04-28T20:20:03.326Z,91.10
2023-04-28T20:22:32.910Z,90.90
2023-04-28T20:34:09.434Z,91.00
2023-04-28T20:36:42.004Z,91.30
2023-04-28T20:44:27.500Z,90.70
2023-04-28T20:46:47.511Z,90.50
2023-04-28T20:49:18.290Z,90.70
2023-04-28T20:51:46.441Z,90.60
2023-04-28T20:54:15.288Z,90.80
2023-04-28T20:57:12.198Z,90.80
2023-04-28T21:00:09.121Z,90.70
2023-04-28T21:03:25.314Z,91.10
2023-04-28T21:06:01.191Z,91.30
2023-04-28T21:08:30.177Z,91.10
2023-04-28T21:10:58.388Z,91.00
2023-04-28T21:13:26.642Z,90.90
2023-04-28T21:16:01.164Z,90.90
2023-04-28T21:18:34.923Z,91.10
2023-04-28T21:21:03.029Z,90.80
2023-04-28T21:23:30.930Z,90.60
2023-04-28T21:25:59.653Z,90.60
2023-04-28T21:28:28.514Z,90.50
2023-04-28T21:30:59.320Z,90.60
2023-04-28T21:33:27.335Z,90.30
2023-04-28T21:35:57.567Z,90.20
2023-04-28T21:38:26.155Z,90.20
2023-04-28T21:40:54.279Z,90.20
2023-04-28T21:43:22.889Z,90.50
2023-04-28T21:45:52.167Z,90.30
2023-04-28T21:48:20.209Z,90.20
2023-04-28T21:50:48.368Z,90.30
2023-04-28T21:53:17.695Z,90.10
2023-04-28T21:55:47.239Z,90.40
2023-04-28T21:58:16.467Z,90.50
2023-04-28T22:00:46.410Z,90.40
2023-04-28T22:03:15.354Z,90.40
2023-04-28T22:05:44.635Z,90.40
2023-04-28T22:08:13.042Z,90.30
2023-04-28T22:10:44.031Z,90.30
2023-04-28T22:13:12.102Z,90.60
2023-04-28T22:15:40.126Z,90.20
2023-04-28T22:18:08.812Z,90.20
2023-04-28T22:20:36.834Z,90.30
2023-04-28T22:23:04.829Z,90.20
2023-04-28T22:25:37.052Z,90.20
2023-04-28T22:28:09.339Z,90.20
2023-04-28T22:30:39.126Z,90.10
2023-04-28T22:33:21.123Z,90.20
2023-04-28T22:35:49.256Z,90.00
2023-04-28T22:38:17.230Z,89.90
2023-04-28T22:40:45.938Z,90.00
2023-04-28T22:43:15.308Z,89.90
2023-04-28T22:45:45.527Z,89.90
2023-04-28T22:48:14.458Z,89.80
2023-04-28T22:50:44.458Z,89.60
2023-04-28T22:53:12.986Z,89.70
2023-04-28T22:55:43.401Z,89.60
2023-04-28T22:58:12.665Z,89.40
2023-04-28T23:00:42.782Z,89.70
2023-04-28T23:03:10.851Z,89.40
2023-04-28T23:05:39.277Z,89.50
2023-04-28T23:08:08.874Z,89.40
2023-04-28T23:10:36.917Z,89.50
2023-04-28T23:13:04.932Z,89.30
2023-04-28T23:15:33.035Z,89.70
2023-04-28T23:18:02.437Z,89.70
2023-04-28T23:20:30.463Z,90.00
2023-04-28T23:23:01.260Z,90.00
2023-04-28T23:25:29.314Z,89.90
2023-04-28T23:27:57.472Z,89.90
2023-04-28T23:30:28.289Z,90.00
2023-04-28T23:32:56.774Z,90.10
2023-04-28T23:35:29.189Z,90.00
2023-04-28T23:37:57.197Z,90.10
2023-04-28T23:40:25.683Z,90.10
2023-04-28T23:42:53.623Z,90.10
2023-04-28T23:45:21.549Z,90.10
2023-04-28T23:47:49.801Z,90.10
2023-04-28T23:50:18.159Z,90.10
2023-04-28T23:52:47.531Z,90.20
2023-04-28T23:55:15.909Z,90.30
2023-04-28T23:57:43.866Z,90.30
